sensor_id;sensor_type;location;lat;lon;timestamp;pressure;altitude;pressure_sealevel;temperature;humidity
25944;BME280;13742;49.306;8.636;2023-04-15T00:00:29;99558.84;;;8.85;66.65
25944;BME280;13742;49.306;8.636;2023-04-15T00:01:32;99558.69;;;8.84;66.08
25944;BME280;13742;49.306;8.636;2023-04-15T00:02:30;99559.34;;;8.80;67.03
25944;BME280;13742;49.306;8.636;2023-04-15T00:03:29;99557.02;;;8.79;66.63
25944;BME280;13742;49.306;8.636;2023-04-15T00:04:30;99555.48;;;8.76;67.23
25944;BME280;13742;49.306;8.636;2023-04-15T00:05:30;99555.31;;;8.76;66.63
25944;BME280;13742;49.306;8.636;2023-04-15T00:06:30;99552.99;;;8.75;66.92
25944;BME280;13742;49.306;8.636;2023-04-15T00:07:30;99553.84;;;8.73;66.44
25944;BME280;13742;49.306;8.636;2023-04-15T00:08:29;99554.80;;;8.72;66.93
25944;BME280;13742;49.306;8.636;2023-04-15T00:09:29;99554.34;;;8.68;67.30
25944;BME280;13742;49.306;8.636;2023-04-15T00:10:29;99551.64;;;8.65;67.89
25944;BME280;13742;49.306;8.636;2023-04-15T00:11:29;99555.19;;;8.64;67.05
25944;BME280;13742;49.306;8.636;2023-04-15T00:12:30;99554.53;;;8.57;68.24
25944;BME280;13742;49.306;8.636;2023-04-15T00:13:29;99557.91;;;8.60;67.90
25944;BME280;13742;49.306;8.636;2023-04-15T00:14:29;99553.98;;;8.55;68.57
25944;BME280;13742;49.306;8.636;2023-04-15T00:15:29;99552.25;;;8.56;67.64
25944;BME280;13742;49.306;8.636;2023-04-15T00:16:29;99558.26;;;8.43;68.34
25944;BME280;13742;49.306;8.636;2023-04-15T00:17:29;99558.00;;;8.22;69.22
25944;BME280;13742;49.306;8.636;2023-04-15T00:18:30;99559.93;;;8.09;69.29
25944;BME280;13742;49.306;8.636;2023-04-15T00:19:30;99562.30;;;7.99;69.34
25944;BME280;13742;49.306;8.636;2023-04-15T00:20:29;99558.97;;;7.82;69.03
25944;BME280;13742;49.306;8.636;2023-04-15T00:21:29;99564.23;;;7.80;69.02
25944;BME280;13742;49.306;8.636;2023-04-15T00:22:29;99563.86;;;7.80;69.36
25944;BME280;13742;49.306;8.636;2023-04-15T00:23:29;99562.30;;;7.87;68.70
25944;BME280;13742;49.306;8.636;2023-04-15T00:24:30;99562.11;;;7.90;67.80
25944;BME280;13742;49.306;8.636;2023-04-15T00:25:29;99559.77;;;7.86;68.22
25944;BME280;13742;49.306;8.636;2023-04-15T00:26:29;99558.72;;;7.85;67.77
25944;BME280;13742;49.306;8.636;2023-04-15T00:27:29;99558.13;;;7.86;67.64
25944;BME280;13742;49.306;8.636;2023-04-15T00:28:30;99558.13;;;7.86;67.37
25944;BME280;13742;49.306;8.636;2023-04-15T00:29:29;99556.31;;;7.85;67.26
25944;BME280;13742;49.306;8.636;2023-04-15T00:30:30;99554.58;;;7.86;66.98
25944;BME280;13742;49.306;8.636;2023-04-15T00:31:30;99554.09;;;7.85;66.78
25944;BME280;13742;49.306;8.636;2023-04-15T00:32:30;99552.02;;;7.84;67.26
25944;BME280;13742;49.306;8.636;2023-04-15T00:33:29;99554.74;;;7.86;66.79
25944;BME280;13742;49.306;8.636;2023-04-15T00:34:29;99551.82;;;7.85;66.68
25944;BME280;13742;49.306;8.636;2023-04-15T00:35:31;99551.05;;;7.86;66.33
25944;BME280;13742;49.306;8.636;2023-04-15T00:36:30;99553.05;;;7.86;66.46
25944;BME280;13742;49.306;8.636;2023-04-15T00:37:29;99548.99;;;7.86;66.34
25944;BME280;13742;49.306;8.636;2023-04-15T00:38:29;99550.47;;;7.86;66.27
25944;BME280;13742;49.306;8.636;2023-04-15T00:39:29;99549.84;;;7.87;66.63
25944;BME280;13742;49.306;8.636;2023-04-15T00:40:29;99549.22;;;7.84;66.96
25944;BME280;13742;49.306;8.636;2023-04-15T00:41:30;99549.98;;;7.85;66.18
25944;BME280;13742;49.306;8.636;2023-04-15T00:42:30;99548.92;;;7.85;66.22
25944;BME280;13742;49.306;8.636;2023-04-15T00:43:29;99549.84;;;7.85;66.64
25944;BME280;13742;49.306;8.636;2023-04-15T00:44:29;99550.63;;;7.86;67.46
25944;BME280;13742;49.306;8.636;2023-04-15T00:45:29;99549.54;;;7.86;67.46
25944;BME280;13742;49.306;8.636;2023-04-15T00:46:29;99556.02;;;7.84;68.08
25944;BME280;13742;49.306;8.636;2023-04-15T00:47:29;99550.94;;;7.82;68.54
25944;BME280;13742;49.306;8.636;2023-04-15T00:48:29;99553.02;;;7.82;68.64
25944;BME280;13742;49.306;8.636;2023-04-15T00:49:29;99551.64;;;7.82;68.39
25944;BME280;13742;49.306;8.636;2023-04-15T00:50:29;99554.53;;;7.82;68.44
25944;BME280;13742;49.306;8.636;2023-04-15T00:51:32;99551.19;;;7.77;69.04
25944;BME280;13742;49.306;8.636;2023-04-15T00:52:29;99555.16;;;7.68;69.76
25944;BME280;13742;49.306;8.636;2023-04-15T00:53:29;99550.80;;;7.64;70.17
25944;BME280;13742;49.306;8.636;2023-04-15T00:54:29;99551.19;;;7.55;70.77
25944;BME280;13742;49.306;8.636;2023-04-15T00:55:29;99548.52;;;7.52;71.03
25944;BME280;13742;49.306;8.636;2023-04-15T00:56:29;99551.20;;;7.50;70.85
25944;BME280;13742;49.306;8.636;2023-04-15T00:57:29;99548.22;;;7.52;70.71
25944;BME280;13742;49.306;8.636;2023-04-15T00:58:29;99549.48;;;7.49;70.65
25944;BME280;13742;49.306;8.636;2023-04-15T00:59:29;99550.22;;;7.51;70.72
25944;BME280;13742;49.306;8.636;2023-04-15T01:00:30;99547.52;;;7.52;70.33
25944;BME280;13742;49.306;8.636;2023-04-15T01:01:29;99549.47;;;7.51;70.48
25944;BME280;13742;49.306;8.636;2023-04-15T01:02:29;99547.86;;;7.46;71.04
25944;BME280;13742;49.306;8.636;2023-04-15T01:03:30;99550.02;;;7.35;71.16
25944;BME280;13742;49.306;8.636;2023-04-15T01:04:29;99547.89;;;7.40;70.52
25944;BME280;13742;49.306;8.636;2023-04-15T01:05:30;99552.34;;;7.41;70.10
25944;BME280;13742;49.306;8.636;2023-04-15T01:06:30;99545.67;;;7.41;69.87
25944;BME280;13742;49.306;8.636;2023-04-15T01:07:30;99552.88;;;7.40;69.50
25944;BME280;13742;49.306;8.636;2023-04-15T01:08:29;99552.30;;;7.41;69.29
25944;BME280;13742;49.306;8.636;2023-04-15T01:09:29;99551.31;;;7.39;69.65
25944;BME280;13742;49.306;8.636;2023-04-15T01:10:29;99551.92;;;7.39;69.55
25944;BME280;13742;49.306;8.636;2023-04-15T01:11:29;99549.27;;;7.38;69.72
25944;BME280;13742;49.306;8.636;2023-04-15T01:12:29;99551.11;;;7.37;69.65
25944;BME280;13742;49.306;8.636;2023-04-15T01:13:30;99547.52;;;7.36;69.58
25944;BME280;13742;49.306;8.636;2023-04-15T01:14:29;99546.53;;;7.32;70.14
25944;BME280;13742;49.306;8.636;2023-04-15T01:15:29;99551.06;;;7.33;69.58
25944;BME280;13742;49.306;8.636;2023-04-15T01:16:29;99550.27;;;7.34;69.46
25944;BME280;13742;49.306;8.636;2023-04-15T01:17:29;99545.51;;;7.34;69.42
25944;BME280;13742;49.306;8.636;2023-04-15T01:18:30;99546.38;;;7.34;69.80
25944;BME280;13742;49.306;8.636;2023-04-15T01:19:29;99552.31;;;7.35;69.42
25944;BME280;13742;49.306;8.636;2023-04-15T01:20:29;99550.63;;;7.35;69.16
25944;BME280;13742;49.306;8.636;2023-04-15T01:21:29;99546.44;;;7.34;69.59
25944;BME280;13742;49.306;8.636;2023-04-15T01:22:29;99547.50;;;7.35;69.33
25944;BME280;13742;49.306;8.636;2023-04-15T01:23:29;99544.78;;;7.36;69.72
25944;BME280;13742;49.306;8.636;2023-04-15T01:24:30;99545.34;;;7.34;69.58
25944;BME280;13742;49.306;8.636;2023-04-15T01:25:33;99547.44;;;7.30;70.48
25944;BME280;13742;49.306;8.636;2023-04-15T01:26:29;99549.25;;;7.28;70.57
25944;BME280;13742;49.306;8.636;2023-04-15T01:27:30;99550.52;;;7.26;70.73
25944;BME280;13742;49.306;8.636;2023-04-15T01:28:30;99548.44;;;7.28;70.44
25944;BME280;13742;49.306;8.636;2023-04-15T01:29:30;99547.20;;;7.27;70.56
25944;BME280;13742;49.306;8.636;2023-04-15T01:30:32;99550.66;;;7.27;70.62
25944;BME280;13742;49.306;8.636;2023-04-15T01:31:29;99548.33;;;7.19;71.40
25944;BME280;13742;49.306;8.636;2023-04-15T01:32:30;99548.31;;;7.19;71.97
25944;BME280;13742;49.306;8.636;2023-04-15T01:33:29;99546.81;;;7.18;71.97
25944;BME280;13742;49.306;8.636;2023-04-15T01:34:29;99547.39;;;7.17;72.19
25944;BME280;13742;49.306;8.636;2023-04-15T01:35:29;99546.00;;;7.16;72.15
25944;BME280;13742;49.306;8.636;2023-04-15T01:36:29;99546.45;;;7.17;72.07
25944;BME280;13742;49.306;8.636;2023-04-15T01:37:29;99547.69;;;7.11;72.59
25944;BME280;13742;49.306;8.636;2023-04-15T01:38:29;99548.83;;;7.13;72.74
25944;BME280;13742;49.306;8.636;2023-04-15T01:39:29;99547.22;;;7.12;72.58
25944;BME280;13742;49.306;8.636;2023-04-15T01:40:29;99546.02;;;7.12;72.61
25944;BME280;13742;49.306;8.636;2023-04-15T01:41:29;99549.94;;;7.09;73.25
25944;BME280;13742;49.306;8.636;2023-04-15T01:42:30;99548.78;;;7.09;73.12
25944;BME280;13742;49.306;8.636;2023-04-15T01:43:29;99550.45;;;7.08;72.99
25944;BME280;13742;49.306;8.636;2023-04-15T01:44:29;99548.87;;;7.08;73.00
25944;BME280;13742;49.306;8.636;2023-04-15T01:45:30;99550.49;;;7.06;72.71
25944;BME280;13742;49.306;8.636;2023-04-15T01:46:29;99555.52;;;7.01;72.98
25944;BME280;13742;49.306;8.636;2023-04-15T01:47:29;99551.21;;;7.03;72.45
25944;BME280;13742;49.306;8.636;2023-04-15T01:48:29;99548.72;;;7.02;72.23
25944;BME280;13742;49.306;8.636;2023-04-15T01:49:29;99552.06;;;7.02;72.34
25944;BME280;13742;49.306;8.636;2023-04-15T01:50:30;99551.60;;;7.01;72.50
25944;BME280;13742;49.306;8.636;2023-04-15T01:51:29;99551.48;;;7.03;72.34
25944;BME280;13742;49.306;8.636;2023-04-15T01:52:29;99556.81;;;7.04;72.30
25944;BME280;13742;49.306;8.636;2023-04-15T01:53:29;99551.07;;;7.04;72.22
25944;BME280;13742;49.306;8.636;2023-04-15T01:54:29;99557.53;;;7.04;72.36
25944;BME280;13742;49.306;8.636;2023-04-15T01:55:29;99553.59;;;7.02;72.19
25944;BME280;13742;49.306;8.636;2023-04-15T01:56:29;99558.60;;;6.93;73.06
25944;BME280;13742;49.306;8.636;2023-04-15T01:57:29;99555.98;;;6.91;73.45
25944;BME280;13742;49.306;8.636;2023-04-15T01:58:29;99557.83;;;6.88;73.45
25944;BME280;13742;49.306;8.636;2023-04-15T01:59:30;99557.41;;;6.77;73.80
25944;BME280;13742;49.306;8.636;2023-04-15T02:00:31;99558.13;;;6.76;73.83
25944;BME280;13742;49.306;8.636;2023-04-15T02:01:29;99554.55;;;6.75;73.53
25944;BME280;13742;49.306;8.636;2023-04-15T02:02:29;99555.86;;;6.74;73.11
25944;BME280;13742;49.306;8.636;2023-04-15T02:03:29;99552.95;;;6.69;72.89
25944;BME280;13742;49.306;8.636;2023-04-15T02:04:29;99550.33;;;6.61;73.29
25944;BME280;13742;49.306;8.636;2023-04-15T02:05:29;99552.34;;;6.56;73.18
25944;BME280;13742;49.306;8.636;2023-04-15T02:06:29;99556.00;;;6.52;73.07
25944;BME280;13742;49.306;8.636;2023-04-15T02:07:31;99553.73;;;6.53;72.58
25944;BME280;13742;49.306;8.636;2023-04-15T02:08:29;99553.98;;;6.52;72.57
25944;BME280;13742;49.306;8.636;2023-04-15T02:09:29;99547.95;;;6.50;72.93
25944;BME280;13742;49.306;8.636;2023-04-15T02:10:29;99552.45;;;6.51;72.54
25944;BME280;13742;49.306;8.636;2023-04-15T02:11:29;99549.61;;;6.46;72.76
25944;BME280;13742;49.306;8.636;2023-04-15T02:12:29;99550.00;;;6.47;72.43
25944;BME280;13742;49.306;8.636;2023-04-15T02:13:29;99552.13;;;6.48;72.13
25944;BME280;13742;49.306;8.636;2023-04-15T02:14:30;99552.23;;;6.48;72.22
25944;BME280;13742;49.306;8.636;2023-04-15T02:15:29;99552.30;;;6.49;71.74
25944;BME280;13742;49.306;8.636;2023-04-15T02:16:29;99551.66;;;6.49;71.67
25944;BME280;13742;49.306;8.636;2023-04-15T02:17:29;99554.17;;;6.47;71.60
25944;BME280;13742;49.306;8.636;2023-04-15T02:18:29;99556.09;;;6.47;71.70
25944;BME280;13742;49.306;8.636;2023-04-15T02:19:30;99554.61;;;6.47;72.14
25944;BME280;13742;49.306;8.636;2023-04-15T02:20:29;99559.17;;;6.48;72.01
25944;BME280;13742;49.306;8.636;2023-04-15T02:21:29;99558.92;;;6.47;71.92
25944;BME280;13742;49.306;8.636;2023-04-15T02:22:29;99557.32;;;6.44;72.47
25944;BME280;13742;49.306;8.636;2023-04-15T02:23:29;99556.83;;;6.44;71.84
25944;BME280;13742;49.306;8.636;2023-04-15T02:24:30;99556.34;;;6.44;71.55
25944;BME280;13742;49.306;8.636;2023-04-15T02:25:29;99557.33;;;6.45;71.66
25944;BME280;13742;49.306;8.636;2023-04-15T02:26:31;99554.61;;;6.45;72.25
25944;BME280;13742;49.306;8.636;2023-04-15T02:27:29;99553.47;;;6.45;71.75
25944;BME280;13742;49.306;8.636;2023-04-15T02:28:29;99552.45;;;6.45;71.22
25944;BME280;13742;49.306;8.636;2023-04-15T02:29:30;99549.27;;;6.46;72.04
25944;BME280;13742;49.306;8.636;2023-04-15T02:30:29;99549.02;;;6.47;72.20
25944;BME280;13742;49.306;8.636;2023-04-15T02:31:29;99548.55;;;6.45;72.61
25944;BME280;13742;49.306;8.636;2023-04-15T02:32:29;99547.79;;;6.40;73.13
25944;BME280;13742;49.306;8.636;2023-04-15T02:33:29;99548.39;;;6.36;73.57
25944;BME280;13742;49.306;8.636;2023-04-15T02:34:30;99546.56;;;6.35;73.60
25944;BME280;13742;49.306;8.636;2023-04-15T02:35:29;99543.02;;;6.31;73.61
25944;BME280;13742;49.306;8.636;2023-04-15T02:36:30;99546.16;;;6.24;73.86
25944;BME280;13742;49.306;8.636;2023-04-15T02:37:30;99548.05;;;6.23;73.82
25944;BME280;13742;49.306;8.636;2023-04-15T02:38:30;99549.71;;;6.21;73.68
25944;BME280;13742;49.306;8.636;2023-04-15T02:39:29;99545.39;;;6.20;73.61
25944;BME280;13742;49.306;8.636;2023-04-15T02:40:29;99550.96;;;6.16;73.56
25944;BME280;13742;49.306;8.636;2023-04-15T02:41:29;99551.75;;;6.17;73.44
25944;BME280;13742;49.306;8.636;2023-04-15T02:42:30;99550.94;;;6.17;73.51
25944;BME280;13742;49.306;8.636;2023-04-15T02:43:29;99550.23;;;6.17;73.39
25944;BME280;13742;49.306;8.636;2023-04-15T02:44:30;99548.27;;;6.15;73.64
25944;BME280;13742;49.306;8.636;2023-04-15T02:45:29;99556.97;;;6.14;73.32
25944;BME280;13742;49.306;8.636;2023-04-15T02:46:29;99555.88;;;6.10;73.53
25944;BME280;13742;49.306;8.636;2023-04-15T02:47:29;99555.61;;;6.07;73.57
25944;BME280;13742;49.306;8.636;2023-04-15T02:48:29;99555.63;;;6.02;74.11
25944;BME280;13742;49.306;8.636;2023-04-15T02:49:29;99554.94;;;5.97;74.06
25944;BME280;13742;49.306;8.636;2023-04-15T02:50:30;99556.91;;;5.96;74.57
25944;BME280;13742;49.306;8.636;2023-04-15T02:51:30;99552.97;;;5.97;74.06
25944;BME280;13742;49.306;8.636;2023-04-15T02:52:29;99551.23;;;5.99;73.57
25944;BME280;13742;49.306;8.636;2023-04-15T02:53:29;99550.63;;;5.99;73.34
25944;BME280;13742;49.306;8.636;2023-04-15T02:54:29;99548.25;;;6.00;72.74
25944;BME280;13742;49.306;8.636;2023-04-15T02:55:29;99549.27;;;5.99;73.02
25944;BME280;13742;49.306;8.636;2023-04-15T02:56:29;99550.13;;;5.93;73.32
25944;BME280;13742;49.306;8.636;2023-04-15T02:57:29;99552.72;;;5.92;73.34
25944;BME280;13742;49.306;8.636;2023-04-15T02:58:29;99550.14;;;5.82;73.90
25944;BME280;13742;49.306;8.636;2023-04-15T02:59:29;99553.10;;;5.88;73.29
25944;BME280;13742;49.306;8.636;2023-04-15T03:00:29;99552.00;;;5.84;73.53
25944;BME280;13742;49.306;8.636;2023-04-15T03:01:29;99550.69;;;5.83;73.59
25944;BME280;13742;49.306;8.636;2023-04-15T03:02:33;99555.06;;;5.84;73.05
25944;BME280;13742;49.306;8.636;2023-04-15T03:03:29;99554.81;;;5.83;73.17
25944;BME280;13742;49.306;8.636;2023-04-15T03:04:29;99553.48;;;5.85;72.63
25944;BME280;13742;49.306;8.636;2023-04-15T03:05:29;99557.88;;;5.86;72.70
25944;BME280;13742;49.306;8.636;2023-04-15T03:06:30;99561.34;;;5.85;72.54
25944;BME280;13742;49.306;8.636;2023-04-15T03:07:30;99562.42;;;5.80;73.24
25944;BME280;13742;49.306;8.636;2023-04-15T03:08:29;99564.48;;;5.80;73.57
25944;BME280;13742;49.306;8.636;2023-04-15T03:09:29;99564.98;;;5.79;73.71
25944;BME280;13742;49.306;8.636;2023-04-15T03:10:29;99564.95;;;5.79;73.12
25944;BME280;13742;49.306;8.636;2023-04-15T03:11:30;99564.34;;;5.81;73.05
25944;BME280;13742;49.306;8.636;2023-04-15T03:12:29;99558.41;;;5.80;72.50
25944;BME280;13742;49.306;8.636;2023-04-15T03:13:29;99563.16;;;5.80;72.69
25944;BME280;13742;49.306;8.636;2023-04-15T03:14:29;99562.40;;;5.80;72.78
25944;BME280;13742;49.306;8.636;2023-04-15T03:15:29;99563.44;;;5.80;72.71
25944;BME280;13742;49.306;8.636;2023-04-15T03:16:29;99562.38;;;5.81;72.76
25944;BME280;13742;49.306;8.636;2023-04-15T03:17:29;99558.58;;;5.80;73.19
25944;BME280;13742;49.306;8.636;2023-04-15T03:18:29;99560.05;;;5.80;72.81
25944;BME280;13742;49.306;8.636;2023-04-15T03:19:29;99558.90;;;5.79;73.24
25944;BME280;13742;49.306;8.636;2023-04-15T03:20:29;99556.53;;;5.79;73.45
25944;BME280;13742;49.306;8.636;2023-04-15T03:21:29;99557.86;;;5.80;73.54
25944;BME280;13742;49.306;8.636;2023-04-15T03:22:30;99562.30;;;5.76;73.62
25944;BME280;13742;49.306;8.636;2023-04-15T03:23:29;99556.42;;;5.71;73.99
25944;BME280;13742;49.306;8.636;2023-04-15T03:24:29;99560.13;;;5.69;74.32
25944;BME280;13742;49.306;8.636;2023-04-15T03:25:29;99556.96;;;5.67;74.18
25944;BME280;13742;49.306;8.636;2023-04-15T03:26:29;99556.55;;;5.64;74.54
25944;BME280;13742;49.306;8.636;2023-04-15T03:27:29;99558.78;;;5.68;74.15
25944;BME280;13742;49.306;8.636;2023-04-15T03:28:29;99558.46;;;5.68;73.88
25944;BME280;13742;49.306;8.636;2023-04-15T03:29:29;99560.34;;;5.69;73.73
25944;BME280;13742;49.306;8.636;2023-04-15T03:30:29;99555.52;;;5.68;73.49
25944;BME280;13742;49.306;8.636;2023-04-15T03:31:29;99560.02;;;5.67;73.65
25944;BME280;13742;49.306;8.636;2023-04-15T03:32:29;99557.91;;;5.66;73.87
25944;BME280;13742;49.306;8.636;2023-04-15T03:33:29;99561.75;;;5.61;73.99
25944;BME280;13742;49.306;8.636;2023-04-15T03:34:29;99560.68;;;5.59;73.80
25944;BME280;13742;49.306;8.636;2023-04-15T03:35:29;99557.83;;;5.53;74.42
25944;BME280;13742;49.306;8.636;2023-04-15T03:36:31;99559.23;;;5.56;73.72
25944;BME280;13742;49.306;8.636;2023-04-15T03:37:29;99558.64;;;5.54;74.03
25944;BME280;13742;49.306;8.636;2023-04-15T03:38:29;99558.73;;;5.54;73.96
25944;BME280;13742;49.306;8.636;2023-04-15T03:39:29;99558.30;;;5.56;73.72
25944;BME280;13742;49.306;8.636;2023-04-15T03:40:29;99561.41;;;5.56;73.65
25944;BME280;13742;49.306;8.636;2023-04-15T03:41:29;99564.22;;;5.56;73.55
25944;BME280;13742;49.306;8.636;2023-04-15T03:42:29;99564.63;;;5.56;73.59
25944;BME280;13742;49.306;8.636;2023-04-15T03:43:29;99564.33;;;5.56;73.45
25944;BME280;13742;49.306;8.636;2023-04-15T03:44:29;99563.05;;;5.56;73.60
25944;BME280;13742;49.306;8.636;2023-04-15T03:45:29;99566.27;;;5.56;73.75
25944;BME280;13742;49.306;8.636;2023-04-15T03:46:29;99565.58;;;5.55;73.79
25944;BME280;13742;49.306;8.636;2023-04-15T03:47:29;99566.86;;;5.55;73.36
25944;BME280;13742;49.306;8.636;2023-04-15T03:48:29;99563.28;;;5.53;73.92
25944;BME280;13742;49.306;8.636;2023-04-15T03:49:29;99566.27;;;5.50;73.97
25944;BME280;13742;49.306;8.636;2023-04-15T03:50:29;99560.27;;;5.35;74.75
25944;BME280;13742;49.306;8.636;2023-04-15T03:51:30;99561.11;;;5.38;74.90
25944;BME280;13742;49.306;8.636;2023-04-15T03:52:29;99560.21;;;5.40;74.40
25944;BME280;13742;49.306;8.636;2023-04-15T03:53:29;99559.17;;;5.40;74.51
25944;BME280;13742;49.306;8.636;2023-04-15T03:54:29;99556.61;;;5.42;74.30
25944;BME280;13742;49.306;8.636;2023-04-15T03:55:29;99562.88;;;5.43;74.32
25944;BME280;13742;49.306;8.636;2023-04-15T03:56:29;99557.58;;;5.43;73.98
25944;BME280;13742;49.306;8.636;2023-04-15T03:57:29;99559.21;;;5.43;73.69
25944;BME280;13742;49.306;8.636;2023-04-15T03:58:29;99560.39;;;5.44;73.45
25944;BME280;13742;49.306;8.636;2023-04-15T03:59:29;99559.79;;;5.44;73.50
25944;BME280;13742;49.306;8.636;2023-04-15T04:00:29;99557.28;;;5.46;73.42
25944;BME280;13742;49.306;8.636;2023-04-15T04:01:29;99561.77;;;5.46;74.39
25944;BME280;13742;49.306;8.636;2023-04-15T04:02:29;99557.59;;;5.45;74.19
25944;BME280;13742;49.306;8.636;2023-04-15T04:03:29;99557.84;;;5.46;74.34
25944;BME280;13742;49.306;8.636;2023-04-15T04:04:29;99556.94;;;5.47;74.43
25944;BME280;13742;49.306;8.636;2023-04-15T04:05:29;99559.30;;;5.48;74.30
25944;BME280;13742;49.306;8.636;2023-04-15T04:06:30;99560.89;;;5.46;74.05
25944;BME280;13742;49.306;8.636;2023-04-15T04:07:29;99564.38;;;5.46;74.27
25944;BME280;13742;49.306;8.636;2023-04-15T04:08:29;99563.62;;;5.46;73.82
25944;BME280;13742;49.306;8.636;2023-04-15T04:09:29;99566.09;;;5.45;73.39
25944;BME280;13742;49.306;8.636;2023-04-15T04:10:29;99566.50;;;5.44;73.62
25944;BME280;13742;49.306;8.636;2023-04-15T04:11:29;99568.55;;;5.45;73.51
25944;BME280;13742;49.306;8.636;2023-04-15T04:12:29;99567.34;;;5.43;73.47
25944;BME280;13742;49.306;8.636;2023-04-15T04:13:29;99570.29;;;5.43;73.14
25944;BME280;13742;49.306;8.636;2023-04-15T04:14:29;99569.69;;;5.43;73.15
25944;BME280;13742;49.306;8.636;2023-04-15T04:15:29;99570.19;;;5.45;73.43
25944;BME280;13742;49.306;8.636;2023-04-15T04:16:29;99574.53;;;5.46;73.63
25944;BME280;13742;49.306;8.636;2023-04-15T04:17:29;99573.55;;;5.48;74.16
25944;BME280;13742;49.306;8.636;2023-04-15T04:18:30;99574.16;;;5.48;73.52
25944;BME280;13742;49.306;8.636;2023-04-15T04:19:29;99575.36;;;5.49;73.62
25944;BME280;13742;49.306;8.636;2023-04-15T04:20:31;99578.06;;;5.50;73.85
25944;BME280;13742;49.306;8.636;2023-04-15T04:21:29;99575.64;;;5.52;74.31
25944;BME280;13742;49.306;8.636;2023-04-15T04:22:29;99573.13;;;5.53;74.82
25944;BME280;13742;49.306;8.636;2023-04-15T04:23:29;99577.07;;;5.54;75.17
25944;BME280;13742;49.306;8.636;2023-04-15T04:24:29;99576.98;;;5.52;75.25
25944;BME280;13742;49.306;8.636;2023-04-15T04:25:29;99569.98;;;5.51;75.46
25944;BME280;13742;49.306;8.636;2023-04-15T04:26:29;99574.67;;;5.50;74.57
25944;BME280;13742;49.306;8.636;2023-04-15T04:27:29;99572.63;;;5.50;74.92
25944;BME280;13742;49.306;8.636;2023-04-15T04:28:29;99572.88;;;5.49;74.48
25944;BME280;13742;49.306;8.636;2023-04-15T04:29:29;99572.66;;;5.49;74.93
25944;BME280;13742;49.306;8.636;2023-04-15T04:30:29;99570.63;;;5.47;75.46
25944;BME280;13742;49.306;8.636;2023-04-15T04:31:29;99572.55;;;5.47;75.44
25944;BME280;13742;49.306;8.636;2023-04-15T04:32:29;99571.41;;;5.46;75.62
25944;BME280;13742;49.306;8.636;2023-04-15T04:33:29;99575.43;;;5.45;75.16
25944;BME280;13742;49.306;8.636;2023-04-15T04:34:29;99575.42;;;5.45;75.65
25944;BME280;13742;49.306;8.636;2023-04-15T04:35:29;99576.54;;;5.44;74.77
25944;BME280;13742;49.306;8.636;2023-04-15T04:36:29;99574.41;;;5.42;74.95
25944;BME280;13742;49.306;8.636;2023-04-15T04:37:29;99579.02;;;5.38;75.30
25944;BME280;13742;49.306;8.636;2023-04-15T04:38:29;99576.82;;;5.38;74.71
25944;BME280;13742;49.306;8.636;2023-04-15T04:39:29;99577.88;;;5.37;76.10
25944;BME280;13742;49.306;8.636;2023-04-15T04:40:29;99578.36;;;5.34;76.85
25944;BME280;13742;49.306;8.636;2023-04-15T04:41:29;99581.05;;;5.30;76.99
25944;BME280;13742;49.306;8.636;2023-04-15T04:42:30;99579.61;;;5.31;76.03
25944;BME280;13742;49.306;8.636;2023-04-15T04:43:29;99581.34;;;5.30;75.67
25944;BME280;13742;49.306;8.636;2023-04-15T04:44:29;99577.11;;;5.30;75.34
25944;BME280;13742;49.306;8.636;2023-04-15T04:45:29;99581.56;;;5.32;76.46
25944;BME280;13742;49.306;8.636;2023-04-15T04:46:29;99583.38;;;5.33;77.05
25944;BME280;13742;49.306;8.636;2023-04-15T04:47:29;99581.56;;;5.31;77.44
25944;BME280;13742;49.306;8.636;2023-04-15T04:48:29;99581.24;;;5.32;76.75
25944;BME280;13742;49.306;8.636;2023-04-15T04:49:29;99577.09;;;5.32;75.90
25944;BME280;13742;49.306;8.636;2023-04-15T04:50:29;99580.34;;;5.33;75.61
25944;BME280;13742;49.306;8.636;2023-04-15T04:51:30;99582.26;;;5.33;75.87
25944;BME280;13742;49.306;8.636;2023-04-15T04:52:29;99582.31;;;5.35;75.76
25944;BME280;13742;49.306;8.636;2023-04-15T04:53:30;99584.97;;;5.36;76.10
25944;BME280;13742;49.306;8.636;2023-04-15T04:54:30;99579.22;;;5.37;76.30
25944;BME280;13742;49.306;8.636;2023-04-15T04:55:31;99581.38;;;5.38;76.43
25944;BME280;13742;49.306;8.636;2023-04-15T04:56:29;99582.80;;;5.39;76.60
25944;BME280;13742;49.306;8.636;2023-04-15T04:57:29;99583.37;;;5.38;76.81
25944;BME280;13742;49.306;8.636;2023-04-15T04:58:29;99586.06;;;5.37;77.09
25944;BME280;13742;49.306;8.636;2023-04-15T04:59:29;99587.70;;;5.38;76.85
25944;BME280;13742;49.306;8.636;2023-04-15T05:00:29;99586.80;;;5.37;76.07
25944;BME280;13742;49.306;8.636;2023-04-15T05:01:29;99588.44;;;5.37;75.72
25944;BME280;13742;49.306;8.636;2023-04-15T05:02:29;99587.54;;;5.38;75.69
25944;BME280;13742;49.306;8.636;2023-04-15T05:03:29;99587.55;;;5.39;76.33
25944;BME280;13742;49.306;8.636;2023-04-15T05:04:30;99587.33;;;5.40;76.47
25944;BME280;13742;49.306;8.636;2023-04-15T05:05:29;99585.12;;;5.39;76.16
25944;BME280;13742;49.306;8.636;2023-04-15T05:06:30;99589.59;;;5.40;76.83
25944;BME280;13742;49.306;8.636;2023-04-15T05:07:29;99586.23;;;5.39;76.33
25944;BME280;13742;49.306;8.636;2023-04-15T05:08:29;99589.86;;;5.39;76.58
25944;BME280;13742;49.306;8.636;2023-04-15T05:09:31;99595.43;;;5.39;76.74
25944;BME280;13742;49.306;8.636;2023-04-15T05:10:29;99591.97;;;5.39;76.66
25944;BME280;13742;49.306;8.636;2023-04-15T05:11:29;99595.67;;;5.38;77.07
25944;BME280;13742;49.306;8.636;2023-04-15T05:12:29;99591.38;;;5.37;77.16
25944;BME280;13742;49.306;8.636;2023-04-15T05:13:29;99594.03;;;5.38;77.14
25944;BME280;13742;49.306;8.636;2023-04-15T05:14:29;99594.88;;;5.39;77.54
25944;BME280;13742;49.306;8.636;2023-04-15T05:15:29;99593.62;;;5.44;78.48
25944;BME280;13742;49.306;8.636;2023-04-15T05:16:29;99589.59;;;5.46;78.38
25944;BME280;13742;49.306;8.636;2023-04-15T05:17:32;99590.20;;;5.48;78.14
25944;BME280;13742;49.306;8.636;2023-04-15T05:18:29;99589.66;;;5.50;78.38
25944;BME280;13742;49.306;8.636;2023-04-15T05:19:29;99591.83;;;5.54;78.86
25944;BME280;13742;49.306;8.636;2023-04-15T05:20:29;99591.95;;;5.57;78.89
25944;BME280;13742;49.306;8.636;2023-04-15T05:21:30;99591.72;;;5.63;79.36